createdAt,value
2018-09-05T00:01:33.095Z,54.50
2018-09-05T00:04:02.076Z,50.83
2018-09-05T00:06:31.000Z,53.27
2018-09-05T00:08:59.951Z,55.10
2018-09-05T00:11:28.910Z,57.87
2018-09-05T00:13:57.855Z,52.90
2018-09-05T00:16:26.819Z,54.50
2018-09-05T00:18:55.719Z,58.57
2018-09-05T00:21:24.629Z,61.07
2018-09-05T00:23:53.626Z,59.10
2018-09-05T00:26:22.637Z,60.27
2018-09-05T00:28:51.652Z,60.20
2018-09-05T00:31:20.713Z,58.53
2018-09-05T00:33:49.703Z,59.17
2018-09-05T00:36:18.703Z,64.60
2018-09-05T00:38:47.637Z,55.90
2018-09-05T00:41:16.585Z,67.57
2018-09-05T00:43:45.491Z,65.43
2018-09-05T00:46:14.440Z,63.63
2018-09-05T00:48:43.408Z,69.27
2018-09-05T00:51:12.400Z,72.83
2018-09-05T00:53:45.103Z,65.13
2018-09-05T00:56:14.081Z,68.10
2018-09-05T00:58:50.263Z,68.27
2018-09-05T01:01:20.285Z,60.87
2018-09-05T01:03:49.283Z,64.63
2018-09-05T01:06:28.333Z,65.07
2018-09-05T01:08:59.723Z,71.20
2018-09-05T01:11:34.734Z,68.83
2018-09-05T01:14:03.725Z,68.00
2018-09-05T01:16:38.063Z,70.13
2018-09-05T01:19:09.243Z,70.00
2018-09-05T01:21:38.243Z,68.33
2018-09-05T01:24:14.691Z,68.30
2018-09-05T01:26:43.848Z,75.67
2018-09-05T01:29:12.867Z,68.97
2018-09-05T01:31:50.887Z,74.00
2018-09-05T01:34:19.806Z,66.73
2018-09-05T01:36:49.875Z,70.93
2018-09-05T01:39:25.159Z,66.93
2018-09-05T01:41:54.011Z,69.63
2018-09-05T01:44:23.106Z,69.33
2018-09-05T01:47:00.143Z,67.23
2018-09-05T01:49:29.231Z,69.97
2018-09-05T01:52:05.541Z,70.17
2018-09-05T01:54:35.558Z,66.70
2018-09-05T01:57:04.606Z,64.53
2018-09-05T01:59:53.389Z,70.33
2018-09-05T02:05:07.371Z,67.60
2018-09-05T02:07:43.320Z,71.93
2018-09-05T02:10:15.909Z,62.87
2018-09-05T02:12:48.542Z,66.97
2018-09-05T02:15:17.501Z,72.50
2018-09-05T02:17:48.265Z,64.03
2018-09-05T02:20:22.918Z,71.97
2018-09-05T02:22:52.035Z,61.97
2018-09-05T02:25:20.986Z,64.47
2018-09-05T02:27:59.519Z,67.00
2018-09-05T02:31:01.209Z,70.97
2018-09-05T02:33:31.167Z,70.10
2018-09-05T02:36:00.079Z,69.50
2018-09-05T02:38:30.229Z,69.00
2018-09-05T02:41:05.363Z,68.93
2018-09-05T02:43:42.927Z,72.60
2018-09-05T02:46:13.103Z,69.87
2018-09-05T02:48:52.303Z,80.70
2018-09-05T02:51:21.375Z,77.77
2018-09-05T02:53:54.291Z,78.60
2018-09-05T02:56:27.434Z,82.13
2018-09-05T02:58:56.461Z,79.43
2018-09-05T03:01:36.867Z,81.23
2018-09-05T03:04:13.966Z,77.97
2018-09-05T03:06:42.855Z,84.83
2018-09-05T03:09:11.876Z,84.47
2018-09-05T03:11:48.333Z,84.00
2018-09-05T03:14:17.291Z,79.67
2018-09-05T03:16:46.191Z,79.93
2018-09-05T03:19:22.344Z,80.47
2018-09-05T03:21:52.340Z,83.20
2018-09-05T03:24:21.265Z,79.90
2018-09-05T03:26:51.855Z,79.37
2018-09-05T03:29:25.113Z,78.17
2018-09-05T03:31:54.280Z,78.70
2018-09-05T03:34:23.159Z,78.33
